Detall de PIREP

Printer-friendly versionPDF version

[2010/10/31 16:47:00]
Flight IATA:CT2111
Pilot Number:042
Company ICAO:CAT
Aircraft Type:B738/F
PAX:100
Departing Airport: LEST
Destination Airport: LEVC
Alternate Airport:LEBL
Online: VATSIM
Route:FORNO UN733 ZMR UN976 DGO UN725 LOBAR
Flight Level:FL320
No Slew and time accel
No pause
Crash detect
Detect pilot in Cockpit between each 30 and 45 minutes
16:47 Zero fuel Weight: 118701 Lbs, Fuel Weight: 46038 Lbs
16:47 VATSIM:LEST 311630Z 32011KT 280V350 7000 3000NE -SHRA SCT015 FEW022TCU BKN028 10/09 Q1008 NOSIG
16:47 VATSIM:LEVC 311630Z 27014KT 9999 FEW035 19/06 Q0999 NOSIG
16:47 VOICE CATALONIAN/ROUTE 2111/PRACTICE ENGLISH
17:00 Parking Brakes off
17:12 Take-off
17:12 Take off Weight: 163788 Lbs
17:12 Wind: 325 @ 011 Knots Heading: 344
17:12 POS N42 54 20 W008 25 06
17:12 Gear Up: 178 Knots
17:12 Flaps:3 at 178 Knots
17:13 Flaps:2 at 181 Knots
17:13 Flaps:1 at 197 Knots
17:14 Flaps:0 at 236 Knots
17:27 Wind:338@112 Knots Heading: 116 Ground Speed: 464 Knots Altitude 26827 ft
17:31 TOC
17:31 Fuel Weight: 41251 Lb
17:42 Wind:337@091 Knots Heading: 056 Ground Speed: 449 Knots Altitude 31699 ft
17:57 Wind:334@047 Knots Heading: 089 Ground Speed: 479 Knots Altitude 31614 ft
18:12 Wind:300@019 Knots Heading: 193 Ground Speed: 463 Knots Altitude 31551 ft
18:13 TOD
18:13 Fuel Weight: 37053 Lb
18:27 Wind:272@027 Knots Heading: 187 Ground Speed: 290 Knots Altitude 10000 ft
18:27 Flaps:1 at 252 Knots
18:28 Flaps:2 at 227 Knots
18:31 Flaps:3 at 205 Knots
18:33 Flaps:4 at 169 Knots
18:35 Flaps:5 at 168 Knots
18:36 Flaps:6 at 149 Knots
18:36 Gear Down: 149 Knots
18:36 Flaps:7 at 149 Knots
18:41 Flaps:8 at 149 Knots
18:42 Wind:283@012 Knots Heading: 294 Ground Speed: 139 Knots Altitude 1893 ft
18:43 TouchDown:Rate -376 ft/min Speed: 139 Knots
18:44 VATSIM:LEVC 311730Z 27012KT 9999 FEW035 18/06 Q1000 NOSIG
18:44 Land
18:44 Wind:243@007 Knots
18:44 Heading: 295
18:44 Flight Duration: 01:32
18:44 Landing Weight: 153638 Lbs
18:44 POS N39 29 32 W000 29 22
18:47 Parking brakes on
18:47 Block to Block Duration: 01:48
18:47 Final Fuel: 34565 Lbls
18:47 Spent Fuel: 11472 Lbls
18:47 Flight Length: 359 NM
18:47 TOD Land Length: 81 NM

Exportar CSV

Powered by Drupal - Modified by Danger4k